Terminal Aerodrome Forecast
Issued by NWS

Home | Current Version | Previous Version | Text Only | Print | Product List | Glossary On
Versions: 1 2 3 4 5 6 7 8 9 10 11 12 13 14 15 16 17 18 19 20 21
000
FTUS43 KGRR 190540
TAFJXN
TAF
KJXN 190540Z 1906/2006 30012G20KT P6SM VCSH OVC035
     FM191500 29012G19KT P6SM OVC035
     FM200000 26007KT P6SM FEW250=

USA.gov is the U.S. government's official web portal to all federal, state and local government web resources and services.